Acushnet, Massachusetts
Current Conditions -  °F | °C
As of 8:53 AM on Monday 26 Jan 2015 (Local Time) from KEWB Reporting Station
Overcast Overcast  
Wind Chill:   Ceiling: 7000
Heat Index: 19°   Visibility: 10mi
Dew Point: 11°   Wind: 9mph
Humidity: 71%   Direction: 20°NNE
Pressure: 30.08"   Gusts: NA
Location:  41.68°N, 70.91°W
Report Text: KEWB 261353Z 02008KT 10SM OVC070 M07/M12 A3008 RMK AO2 SLP187 T10721117
Loading
Personal Weather Stations






























Interactive Weather Map New forecast layout! Learn more

10-Day Weather Forecast

Advertisements
Track Severe Weather on mobile